Main page
Satellite images 15-day forecastsClimateMarine weather Cyclones Lightning AirportsFAQ Newsletter About
Weather : Europe Africa North America South America Asia Australia-Oceania Others
Languages Contact

San Fernando, Argentina

latitude: 34-27-11S, longitude: 058-35-23W, elevation: 3 m


METAR: SADF 300400Z 05004KT CAVOK 13/10 Q1018
short-TAF: out of date (3946 hours)
long-TAF: SADF 292300Z 3000/3024 09010KT CAVOK TX18/3018Z TN09/3010Z TEMPO 3009/3012 4000 BR

Time: 01:12 (04:12 UTC)

Current weather observation

The report was made 12 minutes ago, at 04:00 UTC  
Wind 04 kt from the Northeast
Temperature 13°C
Humidity 82%
Pressure 1018 hPa
Visibility 10 km or more
no clouds below 1500 m and no cumulonimbus

Change units

Forecast

The report was made 4 hours and 11 minutes ago, at 00:01 UTC  
Forecast valid from 30 at 00 UTC to 30 at 24 UTC
Wind 10 kt from the East
Visibility 10 km or more
no clouds below 1500 m and no cumulonimbus
Temporary
from 30 at 09 UTC to 30 at 12 UTC
Visibility 4000 m
mist
The information on this site is subject to a disclaimer
Weather : Europe Africa North America South America Asia Australia-Oceania Others
Satellite images 15-day forecastsClimateMarine weather Cyclones Lightning AirportsFAQ Languages Contact Newsletter About